Time;durP1;ratioP1;P1;durP2;ratioP2;P2;SDS_P1;SDS_P2;PMS_P1;PMS_P2;Temp;Humidity;BMP_temperature;BMP_pressure;BME280_temperature;BME280_humidity;BME280_pressure;Samples;Min_cycle;Max_cycle;Signal;HPM_P1;HPM_P2
2023/07/30 00:01:42;;;;;;;3.50;1.83;;;;;;;;;;5069062;28;20106;-82
2023/07/30 00:04:07;;;;;;;4.72;1.70;;;;;;;;;;5068966;28;20102;-82
2023/07/30 00:06:32;;;;;;;4.03;1.90;;;;;;;;;;5032411;28;20080;-82
2023/07/30 00:08:58;;;;;;;6.30;1.88;;;;;;;;;;5048508;28;20140;-82
2023/07/30 00:11:23;;;;;;;5.45;1.88;;;;;;;;;;5068789;28;20467;-82
2023/07/30 00:13:48;;;;;;;3.22;1.65;;;;;;;;;;5068636;28;20030;-83
2023/07/30 00:16:14;;;;;;;3.78;1.60;;;;;;;;;;5052211;28;20089;-83
2023/07/30 00:18:39;;;;;;;9.75;1.80;;;;;;;;;;5032205;28;20515;-83
2023/07/30 00:21:04;;;;;;;4.28;1.70;;;;;;;;;;5031884;28;20025;-82
2023/07/30 00:23:29;;;;;;;6.20;2.33;;;;;;;;;;5031829;28;20464;-83
2023/07/30 00:25:58;;;;;;;9.57;1.98;;;;;;;;;;5021956;28;20037;-83
2023/07/30 00:28:23;;;;;;;6.43;2.00;;;;;;;;;;5031505;28;20025;-83
2023/07/30 00:30:48;;;;;;;6.22;2.05;;;;;;;;;;5031410;28;20520;-83
2023/07/30 00:33:13;;;;;;;7.75;1.67;;;;;;;;;;5031424;28;20026;-83
2023/07/30 00:35:39;;;;;;;3.63;1.60;;;;;;;;;;5031991;28;20040;-83
2023/07/30 00:38:07;;;;;;;7.00;1.60;;;;;;;;;;5031718;28;20128;-83
2023/07/30 00:40:32;;;;;;;6.85;1.73;;;;;;;;;;5031643;28;20475;-83
2023/07/30 00:42:58;;;;;;;7.18;1.90;;;;;;;;;;5030768;28;20124;-83
2023/07/30 00:45:23;;;;;;;6.65;1.67;;;;;;;;;;5031196;28;20024;-83
2023/07/30 00:47:48;;;;;;;2.78;1.52;;;;;;;;;;5032001;28;20036;-83
2023/07/30 00:50:14;;;;;;;4.90;1.75;;;;;;;;;;5025437;28;20041;-84
2023/07/30 00:52:42;;;;;;;4.35;1.60;;;;;;;;;;5018801;28;20022;-83
2023/07/30 00:55:10;;;;;;;4.70;1.60;;;;;;;;;;5032464;28;20021;-82
2023/07/30 00:57:37;;;;;;;3.15;1.70;;;;;;;;;;5045662;28;20057;-83
2023/07/30 01:00:05;;;;;;;7.22;1.80;;;;;;;;;;5037506;28;20052;-82
2023/07/30 01:02:31;;;;;;;8.10;1.65;;;;;;;;;;5035106;28;20033;-83
2023/07/30 01:04:56;;;;;;;8.63;2.25;;;;;;;;;;5035344;28;20044;-82
2023/07/30 01:07:22;;;;;;;12.07;2.20;;;;;;;;;;5032478;28;20021;-83
2023/07/30 01:09:47;;;;;;;3.25;1.63;;;;;;;;;;5033347;28;20037;-82
2023/07/30 01:12:13;;;;;;;8.10;1.80;;;;;;;;;;5035099;28;20422;-83
2023/07/30 01:14:39;;;;;;;4.28;1.27;;;;;;;;;;5035577;28;20021;-83
2023/07/30 01:17:05;;;;;;;14.25;1.88;;;;;;;;;;5033430;28;20030;-83
2023/07/30 01:19:30;;;;;;;9.18;2.03;;;;;;;;;;5031709;28;20058;-83
2023/07/30 01:21:56;;;;;;;6.50;1.70;;;;;;;;;;5031521;28;20071;-82
2023/07/30 01:24:21;;;;;;;7.72;1.63;;;;;;;;;;5032134;28;20022;-83
2023/07/30 01:26:51;;;;;;;9.10;1.58;;;;;;;;;;5030521;28;20568;-82
2023/07/30 01:29:37;;;;;;;4.68;1.42;;;;;;;;;;5030867;28;20033;-83
2023/07/30 01:32:04;;;;;;;12.90;2.17;;;;;;;;;;5018540;28;20453;-82
2023/07/30 01:34:32;;;;;;;8.82;1.40;;;;;;;;;;5031353;28;20119;-83
2023/07/30 01:36:57;;;;;;;6.22;1.67;;;;;;;;;;5030689;28;20487;-82
2023/07/30 01:39:23;;;;;;;8.15;1.45;;;;;;;;;;5031109;28;20040;-82
2023/07/30 01:41:51;;;;;;;7.32;1.75;;;;;;;;;;5030919;28;20037;-82
2023/07/30 01:44:16;;;;;;;3.97;1.52;;;;;;;;;;5031002;28;20025;-83
2023/07/30 01:46:41;;;;;;;10.30;1.95;;;;;;;;;;5030777;28;20084;-82
2023/07/30 01:49:06;;;;;;;10.45;2.58;;;;;;;;;;5030589;28;20021;-82
2023/07/30 01:51:32;;;;;;;7.53;2.30;;;;;;;;;;5030616;28;20079;-82
2023/07/30 01:53:57;;;;;;;7.72;1.95;;;;;;;;;;5031751;28;20112;-82
2023/07/30 01:56:28;;;;;;;10.25;2.30;;;;;;;;;;5033876;28;20029;-82
2023/07/30 01:58:53;;;;;;;8.65;2.17;;;;;;;;;;5034385;28;20083;-83
2023/07/30 02:01:18;;;;;;;11.88;2.03;;;;;;;;;;5034196;28;20022;-82
2023/07/30 02:03:44;;;;;;;11.23;1.83;;;;;;;;;;5034383;28;20037;-82
2023/07/30 02:06:11;;;;;;;10.93;1.83;;;;;;;;;;5035253;28;20090;-82
2023/07/30 02:08:36;;;;;;;6.65;1.95;;;;;;;;;;5034203;28;20366;-82
2023/07/30 02:11:02;;;;;;;8.82;1.30;;;;;;;;;;5034180;28;20025;-82
2023/07/30 02:13:27;;;;;;;5.65;1.65;;;;;;;;;;5034611;28;20357;-82
2023/07/30 02:16:01;;;;;;;4.03;1.50;;;;;;;;;;5034391;28;20021;-83
2023/07/30 02:18:27;;;;;;;7.88;1.58;;;;;;;;;;5034191;28;20353;-83
2023/07/30 02:20:52;;;;;;;17.83;2.45;;;;;;;;;;5034086;28;20104;-82
2023/07/30 02:23:17;;;;;;;9.13;2.42;;;;;;;;;;5036955;28;20021;-83
2023/07/30 02:25:43;;;;;;;12.68;2.25;;;;;;;;;;5036453;28;20492;-83
2023/07/30 02:28:09;;;;;;;10.75;2.55;;;;;;;;;;5037717;28;20373;-83
2023/07/30 02:30:34;;;;;;;8.25;1.92;;;;;;;;;;5037103;28;20297;-82
2023/07/30 02:33:00;;;;;;;7.05;1.52;;;;;;;;;;5036691;28;20014;-83
2023/07/30 02:35:25;;;;;;;5.90;1.48;;;;;;;;;;5034255;28;20164;-82
2023/07/30 02:37:51;;;;;;;9.63;1.58;;;;;;;;;;5036317;28;20449;-82
2023/07/30 02:40:16;;;;;;;10.60;1.70;;;;;;;;;;5034543;28;20013;-82
2023/07/30 02:42:42;;;;;;;7.47;1.90;;;;;;;;;;5034899;28;20017;-83
2023/07/30 02:45:07;;;;;;;8.30;2.67;;;;;;;;;;5034177;28;20480;-82
2023/07/30 02:47:33;;;;;;;5.22;1.38;;;;;;;;;;5034759;28;20053;-82
2023/07/30 02:49:58;;;;;;;12.27;1.42;;;;;;;;;;5034541;28;20025;-82
2023/07/30 02:52:23;;;;;;;10.57;1.50;;;;;;;;;;5029052;28;20060;-82
2023/07/30 02:54:48;;;;;;;7.70;1.70;;;;;;;;;;5033290;28;20025;-81
2023/07/30 02:57:14;;;;;;;11.10;2.20;;;;;;;;;;5033504;28;20025;-83
2023/07/30 02:59:40;;;;;;;9.32;1.80;;;;;;;;;;5033556;28;20388;-83
2023/07/30 03:02:06;;;;;;;4.60;1.40;;;;;;;;;;5032455;28;20048;-83
2023/07/30 03:04:32;;;;;;;10.60;1.88;;;;;;;;;;5033515;28;20037;-83
2023/07/30 03:06:57;;;;;;;8.70;1.70;;;;;;;;;;5033018;28;20029;-82
2023/07/30 03:09:22;;;;;;;9.18;1.35;;;;;;;;;;5033462;28;20029;-83
2023/07/30 03:11:51;;;;;;;19.02;1.40;;;;;;;;;;5032354;28;20052;-83
2023/07/30 03:14:20;;;;;;;8.77;1.73;;;;;;;;;;5034360;28;20021;-83
2023/07/30 03:16:46;;;;;;;13.18;1.40;;;;;;;;;;5031263;28;20112;-82
2023/07/30 03:19:11;;;;;;;10.65;1.65;;;;;;;;;;5032871;28;20068;-83
2023/07/30 03:21:36;;;;;;;13.88;1.80;;;;;;;;;;5033278;28;20022;-83
2023/07/30 03:24:02;;;;;;;6.40;1.52;;;;;;;;;;5027071;28;20462;-82
2023/07/30 03:26:27;;;;;;;16.90;1.80;;;;;;;;;;5025150;28;20023;-83
2023/07/30 03:28:52;;;;;;;9.95;1.65;;;;;;;;;;5032181;28;20049;-83
2023/07/30 03:31:20;;;;;;;8.07;1.83;;;;;;;;;;5032579;28;20025;-83
2023/07/30 03:33:46;;;;;;;6.10;1.70;;;;;;;;;;5032232;28;20396;-82
2023/07/30 03:36:13;;;;;;;9.57;1.45;;;;;;;;;;5032656;28;20449;-83
2023/07/30 03:38:39;;;;;;;5.75;1.45;;;;;;;;;;5034201;28;20029;-81
2023/07/30 03:41:05;;;;;;;7.60;1.40;;;;;;;;;;5034267;28;20414;-83
2023/07/30 03:43:30;;;;;;;10.82;1.50;;;;;;;;;;5032805;28;20083;-82
2023/07/30 03:45:56;;;;;;;5.75;1.65;;;;;;;;;;5032521;28;20029;-83
2023/07/30 03:48:21;;;;;;;9.20;1.73;;;;;;;;;;5030772;28;20017;-82
2023/07/30 03:50:47;;;;;;;13.98;1.50;;;;;;;;;;5033882;28;20049;-82
2023/07/30 03:53:12;;;;;;;7.38;1.17;;;;;;;;;;5037153;28;20018;-83
2023/07/30 03:55:44;;;;;;;13.45;1.98;;;;;;;;;;5036666;28;20025;-82
2023/07/30 03:58:09;;;;;;;7.22;1.48;;;;;;;;;;5035880;28;20350;-83
2023/07/30 04:00:34;;;;;;;13.07;1.50;;;;;;;;;;5035424;28;20025;-83
2023/07/30 04:03:00;;;;;;;12.98;2.30;;;;;;;;;;5034229;28;20103;-83
2023/07/30 04:05:25;;;;;;;6.95;1.40;;;;;;;;;;5034323;28;20017;-82
2023/07/30 04:07:51;;;;;;;9.77;1.38;;;;;;;;;;5034317;28;20017;-83
2023/07/30 04:10:18;;;;;;;7.05;1.75;;;;;;;;;;5033434;28;20028;-83
2023/07/30 04:12:44;;;;;;;8.20;1.67;;;;;;;;;;5031978;28;20446;-83
2023/07/30 04:15:10;;;;;;;8.88;1.70;;;;;;;;;;5032596;28;20021;-83
2023/07/30 04:17:36;;;;;;;14.77;1.77;;;;;;;;;;5031584;28;20052;-83
2023/07/30 04:20:02;;;;;;;10.23;1.90;;;;;;;;;;5031960;28;20023;-82
2023/07/30 04:22:28;;;;;;;6.78;1.40;;;;;;;;;;5033785;28;20018;-82
2023/07/30 04:24:53;;;;;;;8.77;1.90;;;;;;;;;;5031901;28;20021;-82
2023/07/30 04:27:18;;;;;;;8.65;1.60;;;;;;;;;;5031686;28;20166;-83
2023/07/30 04:29:43;;;;;;;8.10;1.70;;;;;;;;;;5031630;28;20049;-83
2023/07/30 04:32:09;;;;;;;10.02;1.50;;;;;;;;;;5031932;28;20022;-83
2023/07/30 04:34:34;;;;;;;11.43;1.65;;;;;;;;;;5031858;28;20105;-83
2023/07/30 04:36:59;;;;;;;10.05;1.70;;;;;;;;;;5031541;28;20465;-83
2023/07/30 04:39:28;;;;;;;11.00;1.90;;;;;;;;;;5031908;28;20049;-83
2023/07/30 04:41:53;;;;;;;11.20;1.75;;;;;;;;;;5032886;28;20104;-83
2023/07/30 04:44:18;;;;;;;11.20;2.72;;;;;;;;;;5032997;28;20041;-83
2023/07/30 04:46:44;;;;;;;10.27;1.63;;;;;;;;;;5031440;28;20060;-83
2023/07/30 04:49:09;;;;;;;11.65;1.90;;;;;;;;;;5031524;28;20110;-83
2023/07/30 04:51:34;;;;;;;8.35;1.52;;;;;;;;;;5031687;28;20013;-82
2023/07/30 04:54:02;;;;;;;9.15;1.67;;;;;;;;;;5031074;28;20056;-82
2023/07/30 04:56:28;;;;;;;12.45;1.50;;;;;;;;;;5031124;28;20013;-83
2023/07/30 04:58:56;;;;;;;11.63;1.63;;;;;;;;;;5031442;28;20029;-83
2023/07/30 05:01:21;;;;;;;9.38;1.40;;;;;;;;;;5030809;28;20427;-83
2023/07/30 05:03:47;;;;;;;9.02;1.52;;;;;;;;;;5031171;28;20096;-82
2023/07/30 05:06:12;;;;;;;10.93;1.80;;;;;;;;;;5034495;28;20159;-83
2023/07/30 05:08:37;;;;;;;14.43;1.50;;;;;;;;;;5031306;28;20021;-83
2023/07/30 05:11:06;;;;;;;8.23;1.85;;;;;;;;;;5031406;28;20112;-83
2023/07/30 05:13:31;;;;;;;9.63;2.63;;;;;;;;;;5033380;28;20457;-83
2023/07/30 05:15:56;;;;;;;4.28;1.27;;;;;;;;;;5034272;28;20536;-83
2023/07/30 05:18:22;;;;;;;7.78;1.52;;;;;;;;;;5034990;28;20017;-83
2023/07/30 05:20:47;;;;;;;15.00;1.92;;;;;;;;;;5033865;28;20112;-83
2023/07/30 05:23:12;;;;;;;7.68;1.60;;;;;;;;;;5034278;28;20116;-83
2023/07/30 05:25:37;;;;;;;15.77;1.35;;;;;;;;;;5034089;28;20044;-83
2023/07/30 05:28:03;;;;;;;10.95;1.65;;;;;;;;;;5033121;28;20017;-83
2023/07/30 05:30:28;;;;;;;9.55;1.33;;;;;;;;;;5036716;28;20024;-83
2023/07/30 05:32:54;;;;;;;11.82;1.67;;;;;;;;;;5037653;28;20052;-83
2023/07/30 05:35:19;;;;;;;10.30;1.30;;;;;;;;;;5036538;28;20429;-83
2023/07/30 05:37:47;;;;;;;12.38;2.40;;;;;;;;;;5035601;28;20053;-83
2023/07/30 05:40:13;;;;;;;15.82;1.80;;;;;;;;;;5037090;28;20018;-83
2023/07/30 05:42:38;;;;;;;11.27;1.75;;;;;;;;;;5034810;28;20025;-83
2023/07/30 05:45:09;;;;;;;10.50;1.70;;;;;;;;;;5035303;28;20100;-83
2023/07/30 05:47:37;;;;;;;13.77;1.52;;;;;;;;;;5034098;28;20029;-82
2023/07/30 05:50:02;;;;;;;15.23;1.90;;;;;;;;;;5034566;28;20048;-84
2023/07/30 05:52:28;;;;;;;10.88;1.48;;;;;;;;;;5030884;28;20037;-82
2023/07/30 05:54:53;;;;;;;14.02;1.60;;;;;;;;;;5035048;28;20112;-82
2023/07/30 05:57:18;;;;;;;14.80;1.83;;;;;;;;;;5034710;28;20032;-83
2023/07/30 05:59:44;;;;;;;13.25;1.50;;;;;;;;;;5033452;28;20046;-82
2023/07/30 06:02:09;;;;;;;19.65;2.05;;;;;;;;;;5034604;28;20064;-82
2023/07/30 06:04:34;;;;;;;6.53;1.40;;;;;;;;;;5034465;28;20048;-83
2023/07/30 06:07:00;;;;;;;10.00;1.38;;;;;;;;;;5035602;28;20025;-82
2023/07/30 06:09:25;;;;;;;13.10;2.28;;;;;;;;;;5032956;28;20017;-83
2023/07/30 06:11:50;;;;;;;9.02;1.38;;;;;;;;;;5034190;28;20022;-83
2023/07/30 06:14:16;;;;;;;13.07;2.45;;;;;;;;;;5034353;28;20021;-83
2023/07/30 06:16:43;;;;;;;16.23;1.70;;;;;;;;;;5035464;28;20021;-83
2023/07/30 06:19:09;;;;;;;17.48;2.63;;;;;;;;;;5033381;28;20059;-83
2023/07/30 06:21:34;;;;;;;16.75;2.35;;;;;;;;;;5033868;28;20047;-82
2023/07/30 06:23:59;;;;;;;13.52;2.00;;;;;;;;;;5028323;28;20022;-83
2023/07/30 06:26:24;;;;;;;22.60;1.65;;;;;;;;;;5025711;28;20060;-83
2023/07/30 06:28:50;;;;;;;14.25;2.00;;;;;;;;;;5033893;28;20013;-83
2023/07/30 06:31:15;;;;;;;9.20;1.80;;;;;;;;;;5036290;28;20018;-82
2023/07/30 06:33:40;;;;;;;14.65;1.92;;;;;;;;;;5033745;28;20399;-82
2023/07/30 06:36:06;;;;;;;10.77;1.60;;;;;;;;;;5034130;28;20029;-83
2023/07/30 06:38:31;;;;;;;6.30;1.40;;;;;;;;;;5033968;28;20017;-83
2023/07/30 06:40:57;;;;;;;12.75;1.58;;;;;;;;;;5036870;28;20024;-82
2023/07/30 06:43:23;;;;;;;14.85;1.90;;;;;;;;;;5036929;28;20022;-83
2023/07/30 06:45:49;;;;;;;18.17;3.05;;;;;;;;;;5035907;28;20120;-83
2023/07/30 06:48:15;;;;;;;14.48;2.22;;;;;;;;;;5039137;28;20049;-89
2023/07/30 06:50:41;;;;;;;16.23;2.22;;;;;;;;;;5035097;28;20032;-89
2023/07/30 06:53:06;;;;;;;10.48;1.63;;;;;;;;;;5034949;28;20030;-89
2023/07/30 06:55:35;;;;;;;18.60;2.45;;;;;;;;;;5034743;28;20075;-88
2023/07/30 06:58:00;;;;;;;12.05;1.90;;;;;;;;;;5036340;28;20101;-89
2023/07/30 07:00:25;;;;;;;30.25;2.53;;;;;;;;;;5034560;28;20060;-89
2023/07/30 07:02:51;;;;;;;14.27;1.77;;;;;;;;;;5031690;28;20024;-89
2023/07/30 07:05:16;;;;;;;16.33;2.10;;;;;;;;;;5033505;28;20022;-89
2023/07/30 07:07:41;;;;;;;19.17;2.22;;;;;;;;;;5032593;28;20032;-90
2023/07/30 07:10:07;;;;;;;13.15;1.52;;;;;;;;;;5033397;28;20017;-89
2023/07/30 07:12:32;;;;;;;12.55;1.42;;;;;;;;;;5031987;28;20079;-89
2023/07/30 07:15:00;;;;;;;12.80;1.55;;;;;;;;;;5032570;28;20021;-90
2023/07/30 07:17:26;;;;;;;13.93;2.10;;;;;;;;;;5033321;28;20022;-89
2023/07/30 07:19:51;;;;;;;24.38;2.85;;;;;;;;;;5032208;28;20032;-89
2023/07/30 07:22:17;;;;;;;17.77;2.13;;;;;;;;;;5033634;28;20026;-90
2023/07/30 07:24:43;;;;;;;14.70;1.73;;;;;;;;;;5031923;28;20022;-89
2023/07/30 07:27:09;;;;;;;18.67;2.33;;;;;;;;;;5033228;28;20021;-89
2023/07/30 07:29:34;;;;;;;15.05;1.80;;;;;;;;;;5031569;28;20013;-89
2023/07/30 07:31:59;;;;;;;14.70;1.88;;;;;;;;;;5033322;28;20464;-89
2023/07/30 07:34:24;;;;;;;9.80;1.73;;;;;;;;;;5032883;28;20025;-89
2023/07/30 07:36:50;;;;;;;10.20;1.77;;;;;;;;;;5027444;28;20021;-89
2023/07/30 07:39:15;;;;;;;13.20;1.85;;;;;;;;;;5031398;28;20112;-89
2023/07/30 07:41:40;;;;;;;6.32;1.27;;;;;;;;;;5041373;28;20045;-89
2023/07/30 07:44:05;;;;;;;14.85;2.15;;;;;;;;;;5025752;28;20508;-90
2023/07/30 07:46:31;;;;;;;16.75;2.28;;;;;;;;;;5032814;28;20026;-90
2023/07/30 07:48:56;;;;;;;13.13;2.65;;;;;;;;;;5032272;28;20022;-90
2023/07/30 07:51:21;;;;;;;12.88;1.70;;;;;;;;;;5036333;28;20029;-90
2023/07/30 07:53:46;;;;;;;14.35;1.83;;;;;;;;;;5031162;28;20018;-90
2023/07/30 07:56:12;;;;;;;4.80;1.55;;;;;;;;;;5032265;28;20422;-90
2023/07/30 07:58:37;;;;;;;9.65;2.50;;;;;;;;;;5033136;28;20057;-90
2023/07/30 08:01:02;;;;;;;11.98;2.33;;;;;;;;;;5040457;28;20030;-90
2023/07/30 08:03:28;;;;;;;14.13;1.95;;;;;;;;;;5034079;28;20037;-88
2023/07/30 08:05:53;;;;;;;13.02;1.95;;;;;;;;;;5049216;28;20070;-89
2023/07/30 08:08:18;;;;;;;14.60;1.98;;;;;;;;;;5036896;28;20029;-89
2023/07/30 08:10:46;;;;;;;7.75;1.73;;;;;;;;;;5033164;28;20018;-88
2023/07/30 08:13:12;;;;;;;16.65;1.50;;;;;;;;;;5042458;28;20022;-89
2023/07/30 08:15:38;;;;;;;13.90;1.70;;;;;;;;;;5033534;28;20034;-89
2023/07/30 08:18:03;;;;;;;14.38;1.77;;;;;;;;;;5035519;28;20319;-89
2023/07/30 08:20:28;;;;;;;8.68;1.75;;;;;;;;;;5037705;28;20017;-89
2023/07/30 08:22:53;;;;;;;9.13;1.38;;;;;;;;;;5037104;28;20028;-89
2023/07/30 08:25:19;;;;;;;13.18;1.60;;;;;;;;;;5033137;28;20025;-88
2023/07/30 08:27:44;;;;;;;17.42;2.45;;;;;;;;;;5034624;28;20429;-89
2023/07/30 08:30:12;;;;;;;5.55;1.50;;;;;;;;;;5030561;28;20159;-89
2023/07/30 08:32:37;;;;;;;8.43;1.63;;;;;;;;;;5038277;28;20026;-89
2023/07/30 08:35:03;;;;;;;13.85;1.83;;;;;;;;;;5025915;28;20017;-89
2023/07/30 08:37:28;;;;;;;10.68;2.00;;;;;;;;;;5033019;28;20028;-89
2023/07/30 08:39:54;;;;;;;10.45;1.45;;;;;;;;;;5032788;28;20022;-89
2023/07/30 08:42:19;;;;;;;7.63;1.38;;;;;;;;;;5032803;28;20048;-89
2023/07/30 08:44:44;;;;;;;7.55;1.30;;;;;;;;;;5032476;28;20025;-89
2023/07/30 08:47:10;;;;;;;11.18;1.23;;;;;;;;;;5037270;28;20048;-90
2023/07/30 08:49:35;;;;;;;11.82;2.38;;;;;;;;;;5032306;28;20029;-89
2023/07/30 08:52:02;;;;;;;5.38;1.33;;;;;;;;;;5032205;28;20392;-89
2023/07/30 08:54:29;;;;;;;12.43;1.77;;;;;;;;;;5031763;28;20025;-89
2023/07/30 08:56:54;;;;;;;7.85;1.10;;;;;;;;;;5036113;28;20079;-90
2023/07/30 08:59:21;;;;;;;8.95;1.33;;;;;;;;;;5040020;28;20036;-89
2023/07/30 09:01:51;;;;;;;4.53;1.25;;;;;;;;;;5036523;28;20396;-89
2023/07/30 09:04:17;;;;;;;11.30;1.33;;;;;;;;;;5033869;28;20196;-89
2023/07/30 09:06:42;;;;;;;11.98;1.42;;;;;;;;;;5040830;28;20045;-90
2023/07/30 09:09:11;;;;;;;14.00;1.45;;;;;;;;;;5030972;28;20189;-90
2023/07/30 09:11:36;;;;;;;8.25;1.50;;;;;;;;;;5031411;28;20457;-89
2023/07/30 09:14:02;;;;;;;6.32;0.98;;;;;;;;;;5027751;28;20026;-90
2023/07/30 09:16:30;;;;;;;4.32;1.10;;;;;;;;;;5032864;28;20021;-90
2023/07/30 09:18:56;;;;;;;6.25;0.90;;;;;;;;;;5032924;28;20113;-90
2023/07/30 09:21:31;;;;;;;6.88;0.93;;;;;;;;;;5037548;28;20053;-90
2023/07/30 09:23:57;;;;;;;6.47;1.27;;;;;;;;;;5030359;28;20028;-90
2023/07/30 09:26:22;;;;;;;7.18;1.10;;;;;;;;;;5030972;28;20021;-90
2023/07/30 09:28:48;;;;;;;7.53;1.48;;;;;;;;;;5031217;28;20070;-89
2023/07/30 09:31:16;;;;;;;10.43;1.83;;;;;;;;;;5030285;28;20018;-90
2023/07/30 09:33:42;;;;;;;9.05;1.27;;;;;;;;;;5032923;28;20098;-90
2023/07/30 09:36:08;;;;;;;7.10;1.20;;;;;;;;;;5029411;28;20176;-89
2023/07/30 09:38:41;;;;;;;7.53;1.10;;;;;;;;;;5026752;28;20030;-89
2023/07/30 09:41:06;;;;;;;5.57;0.80;;;;;;;;;;5030177;28;20033;-90
2023/07/30 09:43:32;;;;;;;5.40;0.80;;;;;;;;;;5032048;28;20014;-89
2023/07/30 09:46:01;;;;;;;6.55;1.02;;;;;;;;;;5028378;28;20032;-90
2023/07/30 09:48:26;;;;;;;0.57;0.30;;;;;;;;;;5030425;28;20038;-89
2023/07/30 09:50:56;;;;;;;3.25;0.70;;;;;;;;;;5029958;28;20096;-89
2023/07/30 09:53:21;;;;;;;4.38;0.63;;;;;;;;;;5031832;28;20047;-90
2023/07/30 09:55:46;;;;;;;1.40;0.40;;;;;;;;;;5030354;28;20105;-89
2023/07/30 09:58:12;;;;;;;4.82;0.70;;;;;;;;;;5030047;28;20109;-90
2023/07/30 10:00:43;;;;;;;4.72;0.60;;;;;;;;;;5029946;28;20026;-90
2023/07/30 10:03:09;;;;;;;2.60;0.53;;;;;;;;;;5029859;28;20357;-89
2023/07/30 10:05:36;;;;;;;5.43;0.43;;;;;;;;;;5028365;28;20441;-90
2023/07/30 10:08:21;;;;;;;4.43;0.50;;;;;;;;;;5029549;28;20436;-90
2023/07/30 10:10:47;;;;;;;5.07;0.80;;;;;;;;;;5028588;28;20100;-90
2023/07/30 10:13:13;;;;;;;5.65;1.00;;;;;;;;;;5028943;28;20104;-89
2023/07/30 10:15:38;;;;;;;2.53;0.80;;;;;;;;;;5031795;28;20033;-89
2023/07/30 10:18:04;;;;;;;3.75;0.60;;;;;;;;;;5034189;28;20104;-89
2023/07/30 10:20:30;;;;;;;3.17;0.60;;;;;;;;;;5035642;28;20013;-89
2023/07/30 10:22:56;;;;;;;6.68;0.85;;;;;;;;;;5034432;28;20021;-89
2023/07/30 10:25:26;;;;;;;4.70;0.90;;;;;;;;;;5035952;28;20033;-89
2023/07/30 10:27:52;;;;;;;7.22;1.35;;;;;;;;;;5033292;28;20024;-89
2023/07/30 10:30:20;;;;;;;4.68;0.73;;;;;;;;;;5031652;28;20093;-89
2023/07/30 10:32:54;;;;;;;9.38;0.93;;;;;;;;;;5033412;28;20447;-90
2023/07/30 10:35:38;;;;;;;3.95;0.80;;;;;;;;;;5033843;28;20013;-90
2023/07/30 10:38:13;;;;;;;4.45;0.82;;;;;;;;;;5022140;28;20113;-89
2023/07/30 10:40:39;;;;;;;4.65;1.00;;;;;;;;;;5032862;28;20026;-88
2023/07/30 10:43:21;;;;;;;6.50;1.00;;;;;;;;;;5035189;28;20086;-89
2023/07/30 10:45:50;;;;;;;5.95;0.80;;;;;;;;;;5032171;28;20025;-89
2023/07/30 10:48:15;;;;;;;4.78;1.10;;;;;;;;;;5031742;28;20053;-89
2023/07/30 10:50:41;;;;;;;5.45;1.00;;;;;;;;;;5032472;28;20393;-89
2023/07/30 10:53:07;;;;;;;5.45;0.98;;;;;;;;;;5032733;28;20120;-89
2023/07/30 10:55:33;;;;;;;6.13;0.85;;;;;;;;;;5033060;28;20017;-89
2023/07/30 10:57:59;;;;;;;4.93;1.20;;;;;;;;;;5030236;28;20037;-89
2023/07/30 11:00:25;;;;;;;6.68;1.00;;;;;;;;;;5032318;28;20164;-90
2023/07/30 11:02:56;;;;;;;3.65;0.90;;;;;;;;;;5033422;28;20084;-88
2023/07/30 11:05:21;;;;;;;5.63;1.13;;;;;;;;;;5032372;28;20036;-89
2023/07/30 11:07:51;;;;;;;6.97;1.20;;;;;;;;;;5031723;28;20025;-89
2023/07/30 11:10:19;;;;;;;4.57;1.60;;;;;;;;;;5031991;28;20018;-89
2023/07/30 11:12:44;;;;;;;5.93;1.17;;;;;;;;;;5049395;28;20087;-89
2023/07/30 11:15:10;;;;;;;6.32;0.90;;;;;;;;;;5032886;28;20021;-89
2023/07/30 11:17:38;;;;;;;0.45;0.25;;;;;;;;;;5032887;28;20286;-90
2023/07/30 11:20:04;;;;;;;2.90;1.00;;;;;;;;;;5033031;28;20128;-89
2023/07/30 11:22:33;;;;;;;8.82;0.90;;;;;;;;;;5032020;28;20021;-89
2023/07/30 11:24:58;;;;;;;6.22;1.10;;;;;;;;;;5033114;28;20033;-90
2023/07/30 11:27:24;;;;;;;9.60;1.20;;;;;;;;;;5032436;28;20334;-89
2023/07/30 11:29:56;;;;;;;5.18;0.63;;;;;;;;;;5050463;28;20013;-90
2023/07/30 11:32:25;;;;;;;7.43;1.10;;;;;;;;;;5032779;28;20017;-89
2023/07/30 11:34:50;;;;;;;5.68;1.10;;;;;;;;;;5032433;28;20106;-89
2023/07/30 11:37:15;;;;;;;3.85;1.10;;;;;;;;;;5031131;28;20033;-90
2023/07/30 11:39:41;;;;;;;7.82;1.30;;;;;;;;;;5048142;28;20033;-90
2023/07/30 11:42:06;;;;;;;5.43;0.95;;;;;;;;;;5031779;28;20030;-88
2023/07/30 11:44:31;;;;;;;9.75;1.30;;;;;;;;;;5028053;28;20532;-88
2023/07/30 11:46:57;;;;;;;3.17;0.93;;;;;;;;;;5030617;28;20064;-88
2023/07/30 11:49:24;;;;;;;7.57;1.15;;;;;;;;;;5027787;28;20096;-88
2023/07/30 11:51:51;;;;;;;5.82;0.98;;;;;;;;;;5035270;28;20052;-89
2023/07/30 11:54:21;;;;;;;4.72;1.00;;;;;;;;;;5031139;28;20053;-88
2023/07/30 11:56:46;;;;;;;6.40;1.00;;;;;;;;;;5030706;28;20033;-88
2023/07/30 11:59:12;;;;;;;6.32;1.23;;;;;;;;;;5027157;28;20076;-88
2023/07/30 12:01:37;;;;;;;8.55;1.40;;;;;;;;;;5033188;28;20032;-88
2023/07/30 12:04:04;;;;;;;7.60;1.38;;;;;;;;;;5031712;28;20094;-87
2023/07/30 12:06:42;;;;;;;8.07;0.98;;;;;;;;;;5033395;28;20125;-88
2023/07/30 12:09:14;;;;;;;9.38;0.95;;;;;;;;;;5031599;28;20112;-87
2023/07/30 12:11:50;;;;;;;5.05;0.60;;;;;;;;;;5044741;28;20093;-89
2023/07/30 12:14:15;;;;;;;2.67;0.68;;;;;;;;;;5030267;28;20052;-89
2023/07/30 12:16:40;;;;;;;4.45;0.90;;;;;;;;;;5026932;28;20057;-87
2023/07/30 12:19:06;;;;;;;5.85;0.80;;;;;;;;;;5029668;28;20025;-88
2023/07/30 12:21:31;;;;;;;4.53;0.68;;;;;;;;;;5049987;28;20087;-87
2023/07/30 12:23:56;;;;;;;2.78;0.63;;;;;;;;;;5027871;28;20028;-88
2023/07/30 12:26:22;;;;;;;2.70;0.70;;;;;;;;;;5034986;28;20025;-88
2023/07/30 12:28:47;;;;;;;3.92;0.80;;;;;;;;;;5023029;28;20123;-89
2023/07/30 12:31:12;;;;;;;6.32;0.85;;;;;;;;;;5017575;28;20746;-89
2023/07/30 12:33:38;;;;;;;6.15;0.60;;;;;;;;;;5031788;28;20426;-90
2023/07/30 12:36:03;;;;;;;7.68;1.05;;;;;;;;;;5032811;28;20082;-88
2023/07/30 12:38:29;;;;;;;3.83;0.73;;;;;;;;;;5030684;28;20053;-87
2023/07/30 12:40:54;;;;;;;4.57;0.82;;;;;;;;;;5031073;28;20024;-88
2023/07/30 12:43:21;;;;;;;5.95;1.05;;;;;;;;;;5030639;28;20021;-88
2023/07/30 12:45:46;;;;;;;2.85;0.77;;;;;;;;;;5026389;28;20025;-88
2023/07/30 12:48:12;;;;;;;3.08;0.40;;;;;;;;;;5027356;28;20017;-87
2023/07/30 12:50:37;;;;;;;6.13;0.80;;;;;;;;;;5027621;28;20079;-88
2023/07/30 12:53:02;;;;;;;6.15;0.93;;;;;;;;;;5033493;28;20615;-89
2023/07/30 12:55:28;;;;;;;6.60;0.90;;;;;;;;;;5027768;28;20021;-88
2023/07/30 12:57:54;;;;;;;3.03;0.40;;;;;;;;;;5010414;28;20968;-87
2023/07/30 13:00:20;;;;;;;2.80;0.60;;;;;;;;;;5014016;28;20025;-89
2023/07/30 13:02:45;;;;;;;3.45;0.50;;;;;;;;;;5011138;28;20544;-87
2023/07/30 13:05:10;;;;;;;2.33;0.80;;;;;;;;;;5030131;28;20053;-87
2023/07/30 13:07:35;;;;;;;5.43;0.70;;;;;;;;;;5031977;28;20302;-87
2023/07/30 13:10:04;;;;;;;4.30;0.70;;;;;;;;;;5034274;28;20112;-88
2023/07/30 13:12:32;;;;;;;3.25;0.73;;;;;;;;;;5018469;28;20028;-88
2023/07/30 13:15:00;;;;;;;1.15;0.50;;;;;;;;;;5038763;28;20079;-89
2023/07/30 13:17:25;;;;;;;3.33;0.70;;;;;;;;;;5029732;28;20025;-88
2023/07/30 13:19:50;;;;;;;5.13;0.50;;;;;;;;;;5032504;28;20547;-89
2023/07/30 13:22:15;;;;;;;6.53;0.80;;;;;;;;;;5023365;28;20036;-89
2023/07/30 13:24:41;;;;;;;1.83;0.60;;;;;;;;;;5027349;28;20056;-89
2023/07/30 13:27:06;;;;;;;2.17;0.52;;;;;;;;;;5028963;28;20028;-89
2023/07/30 13:29:31;;;;;;;2.70;0.85;;;;;;;;;;5029801;28;20018;-89
2023/07/30 13:31:56;;;;;;;5.07;0.70;;;;;;;;;;5027430;28;20755;-89
2023/07/30 13:34:22;;;;;;;3.35;0.70;;;;;;;;;;5020141;28;20022;-89
2023/07/30 13:36:47;;;;;;;4.75;0.57;;;;;;;;;;5031624;28;20087;-88
2023/07/30 13:39:15;;;;;;;2.58;0.80;;;;;;;;;;5047788;28;20023;-88
2023/07/30 13:41:43;;;;;;;6.78;0.80;;;;;;;;;;5030510;28;20021;-89
2023/07/30 13:44:11;;;;;;;5.35;0.65;;;;;;;;;;5028988;28;20481;-89
2023/07/30 13:46:36;;;;;;;4.10;0.88;;;;;;;;;;5016072;28;20029;-88
2023/07/30 13:49:02;;;;;;;3.88;0.70;;;;;;;;;;5027342;28;20353;-89
2023/07/30 13:51:31;;;;;;;5.07;0.55;;;;;;;;;;5033158;28;20029;-88
2023/07/30 13:53:57;;;;;;;5.85;0.80;;;;;;;;;;5030622;28;20438;-88
2023/07/30 13:56:22;;;;;;;6.05;1.08;;;;;;;;;;5030439;28;20034;-89
2023/07/30 13:58:47;;;;;;;4.88;0.60;;;;;;;;;;5032956;28;20021;-90
2023/07/30 14:01:13;;;;;;;2.15;0.60;;;;;;;;;;5023868;28;20163;-89
2023/07/30 14:03:38;;;;;;;4.22;0.50;;;;;;;;;;5030376;28;20033;-89
2023/07/30 14:06:04;;;;;;;4.15;0.80;;;;;;;;;;5034849;28;20033;-89
2023/07/30 14:08:32;;;;;;;5.40;0.77;;;;;;;;;;5034577;28;20009;-88
2023/07/30 14:10:58;;;;;;;3.17;0.70;;;;;;;;;;5031312;28;20049;-89
2023/07/30 14:13:24;;;;;;;8.38;0.70;;;;;;;;;;5021373;28;20398;-88
2023/07/30 14:15:50;;;;;;;4.25;0.88;;;;;;;;;;5040503;28;20163;-89
2023/07/30 14:18:15;;;;;;;3.50;0.60;;;;;;;;;;5024389;28;20051;-89
2023/07/30 14:20:41;;;;;;;5.35;0.43;;;;;;;;;;5034490;28;20040;-89
2023/07/30 14:23:11;;;;;;;4.80;0.80;;;;;;;;;;5033438;28;20025;-89
2023/07/30 14:25:36;;;;;;;8.45;1.40;;;;;;;;;;5033995;28;20021;-89
2023/07/30 14:28:02;;;;;;;3.72;0.80;;;;;;;;;;5030068;28;20120;-89
2023/07/30 14:30:27;;;;;;;6.93;0.93;;;;;;;;;;5026549;28;20128;-89
2023/07/30 14:32:52;;;;;;;2.88;0.90;;;;;;;;;;5034713;28;20473;-90